createdAt,value
2023-03-31T00:00:18.750Z,30.30
2023-03-31T00:02:46.235Z,35.35
2023-03-31T00:05:18.081Z,44.65
2023-03-31T00:07:46.197Z,37.30
2023-03-31T00:10:18.236Z,36.17
2023-03-31T00:12:46.061Z,31.63
2023-03-31T00:15:13.363Z,29.27
2023-03-31T00:17:40.421Z,31.15
2023-03-31T00:20:12.502Z,30.25
2023-03-31T00:22:42.411Z,30.80
2023-03-31T00:25:14.169Z,31.38
2023-03-31T00:27:45.235Z,34.38
2023-03-31T00:30:16.129Z,31.02
2023-03-31T00:32:43.165Z,30.10
2023-03-31T00:35:10.519Z,31.40
2023-03-31T00:37:37.834Z,32.47
2023-03-31T00:40:09.363Z,35.75
2023-03-31T00:42:43.752Z,32.53
2023-03-31T00:45:14.042Z,32.40
2023-03-31T00:47:48.924Z,32.15
2023-03-31T00:50:23.213Z,38.45
2023-03-31T00:52:56.295Z,32.63
2023-03-31T00:55:29.679Z,32.95
2023-03-31T00:57:57.994Z,31.60
2023-03-31T01:00:24.970Z,33.10
2023-03-31T01:02:59.490Z,33.00
2023-03-31T01:05:45.928Z,31.65
2023-03-31T01:08:14.892Z,30.30
2023-03-31T01:10:46.504Z,30.42
2023-03-31T01:13:15.052Z,31.38
2023-03-31T01:15:43.017Z,30.58
2023-03-31T01:18:11.470Z,31.10
2023-03-31T01:20:52.922Z,31.38
2023-03-31T01:23:35.575Z,31.25
2023-03-31T01:26:18.399Z,31.67
2023-03-31T01:29:00.561Z,31.00
2023-03-31T01:31:55.335Z,31.60
2023-03-31T01:34:25.067Z,31.98
2023-03-31T01:37:07.226Z,33.45
2023-03-31T01:40:09.777Z,34.53
2023-03-31T01:42:49.700Z,33.15
2023-03-31T01:45:33.271Z,31.20
2023-03-31T01:48:26.046Z,33.30
2023-03-31T01:51:03.280Z,33.38
2023-03-31T01:53:51.889Z,32.42
2023-03-31T01:56:27.122Z,33.28
2023-03-31T01:58:59.351Z,34.13
2023-03-31T02:01:43.558Z,32.72
2023-03-31T02:04:36.709Z,32.75
2023-03-31T02:07:12.136Z,31.23
2023-03-31T02:09:43.580Z,32.95
2023-03-31T02:12:12.298Z,32.10
2023-03-31T02:14:46.867Z,32.42
2023-03-31T02:17:21.469Z,32.50
2023-03-31T02:19:52.638Z,32.40
2023-03-31T02:22:22.532Z,31.63
2023-03-31T02:24:51.573Z,30.75
2023-03-31T02:27:31.373Z,31.52
2023-03-31T02:29:59.624Z,32.90
2023-03-31T02:32:35.530Z,31.58
2023-03-31T02:35:03.386Z,32.03
2023-03-31T02:37:30.856Z,31.75
2023-03-31T02:40:01.057Z,30.60
2023-03-31T02:42:28.092Z,31.60
2023-03-31T02:44:55.081Z,31.63
2023-03-31T02:47:22.848Z,30.00
2023-03-31T02:49:53.703Z,31.13
2023-03-31T02:52:52.061Z,30.90
2023-03-31T02:55:48.840Z,30.63
2023-03-31T02:58:28.780Z,32.38
2023-03-31T03:01:20.639Z,31.23
2023-03-31T03:04:25.749Z,31.05
2023-03-31T03:07:17.647Z,30.42
2023-03-31T03:10:07.029Z,32.28
2023-03-31T03:13:04.081Z,32.78
2023-03-31T03:15:39.415Z,31.40
2023-03-31T03:18:06.989Z,30.23
2023-03-31T03:20:34.320Z,31.55
2023-03-31T03:23:01.462Z,32.70
2023-03-31T03:25:30.329Z,33.25
2023-03-31T03:27:57.288Z,34.08
2023-03-31T03:30:24.261Z,32.60
2023-03-31T03:32:51.327Z,33.70
2023-03-31T03:35:18.354Z,34.67
2023-03-31T03:37:45.472Z,32.33
2023-03-31T03:40:12.685Z,35.10
2023-03-31T03:42:39.667Z,32.83
2023-03-31T03:45:07.705Z,32.97
2023-03-31T03:47:36.216Z,34.45
2023-03-31T03:50:04.941Z,35.05
2023-03-31T03:52:32.038Z,32.58
2023-03-31T03:54:58.993Z,32.85
2023-03-31T03:57:26.426Z,34.65
2023-03-31T03:59:53.496Z,34.30
2023-03-31T04:02:20.572Z,32.47
2023-03-31T04:04:47.942Z,33.97
2023-03-31T04:07:15.595Z,32.10
2023-03-31T04:09:42.476Z,32.33
2023-03-31T04:12:09.384Z,33.95
2023-03-31T04:14:36.334Z,35.08
2023-03-31T04:17:03.416Z,33.17
2023-03-31T04:19:30.360Z,33.17
2023-03-31T04:22:03.042Z,33.58
2023-03-31T04:24:33.577Z,34.10
2023-03-31T04:27:03.183Z,33.17
2023-03-31T04:29:33.768Z,35.50
2023-03-31T04:32:01.303Z,34.53
2023-03-31T04:34:35.371Z,36.17
2023-03-31T04:37:03.565Z,35.30
2023-03-31T04:39:30.963Z,36.80
2023-03-31T04:41:58.825Z,35.85
2023-03-31T04:44:26.044Z,37.47
2023-03-31T04:46:53.765Z,36.45
2023-03-31T04:49:20.815Z,37.03
2023-03-31T04:51:47.803Z,38.85
2023-03-31T04:54:14.801Z,37.70
2023-03-31T04:56:41.708Z,36.75
2023-03-31T04:59:08.688Z,34.80
2023-03-31T05:01:36.554Z,36.72
2023-03-31T05:04:06.706Z,35.45
2023-03-31T05:06:33.837Z,34.25
2023-03-31T05:09:00.916Z,36.15
2023-03-31T05:11:29.164Z,33.47
2023-03-31T05:13:56.433Z,36.20
2023-03-31T05:16:23.452Z,35.22
2023-03-31T05:18:50.422Z,34.13
2023-03-31T05:21:20.136Z,36.13
2023-03-31T05:23:48.014Z,36.88
2023-03-31T05:26:15.466Z,35.72
2023-03-31T05:28:42.954Z,38.67
2023-03-31T05:31:11.392Z,41.03
2023-03-31T05:33:41.347Z,38.15
2023-03-31T05:36:13.750Z,36.50
2023-03-31T05:38:41.199Z,38.75
2023-03-31T05:41:09.692Z,41.25
2023-03-31T05:43:38.178Z,41.15
2023-03-31T05:46:06.654Z,39.15
2023-03-31T05:48:34.258Z,37.38
2023-03-31T05:51:01.953Z,40.75
2023-03-31T05:53:28.998Z,36.65
2023-03-31T05:56:06.365Z,36.60
2023-03-31T05:58:37.291Z,37.92
2023-03-31T06:01:09.033Z,38.10
2023-03-31T06:03:38.758Z,39.53
2023-03-31T06:06:06.337Z,38.60
2023-03-31T06:08:33.382Z,38.67
2023-03-31T06:11:01.102Z,38.17
2023-03-31T06:13:28.021Z,35.33
2023-03-31T06:15:59.643Z,37.28
2023-03-31T06:18:28.855Z,38.13
2023-03-31T06:20:56.648Z,38.92
2023-03-31T06:23:24.657Z,37.75
2023-03-31T06:25:52.610Z,38.83
2023-03-31T06:28:21.259Z,39.20
2023-03-31T06:30:48.272Z,37.97
2023-03-31T06:33:16.473Z,38.67
2023-03-31T06:35:43.535Z,38.40
2023-03-31T06:38:10.850Z,39.47
2023-03-31T06:40:37.851Z,39.28
2023-03-31T06:43:04.836Z,39.05
2023-03-31T06:45:31.930Z,39.13
2023-03-31T06:47:58.992Z,39.03
2023-03-31T06:50:26.352Z,39.35
2023-03-31T06:52:55.200Z,40.65
2023-03-31T06:55:22.244Z,40.28
2023-03-31T06:57:49.164Z,39.05
2023-03-31T07:00:17.287Z,40.42
2023-03-31T07:02:44.435Z,39.40
2023-03-31T07:05:11.635Z,38.55
2023-03-31T07:07:38.738Z,38.83
2023-03-31T07:10:06.264Z,38.60
2023-03-31T07:12:34.138Z,38.85
2023-03-31T07:15:01.166Z,39.50
2023-03-31T07:17:28.270Z,38.08
2023-03-31T07:19:55.535Z,40.25
2023-03-31T07:22:22.824Z,37.53
2023-03-31T07:24:49.761Z,38.45
2023-03-31T07:27:16.849Z,36.92
2023-03-31T07:29:43.895Z,37.28
2023-03-31T07:32:11.003Z,39.08
2023-03-31T07:34:39.099Z,37.28
2023-03-31T07:37:06.265Z,37.08
2023-03-31T07:39:33.292Z,39.35
2023-03-31T07:42:01.308Z,37.45
2023-03-31T07:44:28.262Z,38.80
2023-03-31T07:46:55.785Z,36.97
2023-03-31T07:49:22.696Z,37.88
2023-03-31T07:51:49.638Z,35.90
2023-03-31T07:54:16.570Z,37.35
2023-03-31T07:56:43.573Z,37.28
2023-03-31T07:59:10.887Z,35.17
2023-03-31T08:01:37.903Z,34.47
2023-03-31T08:04:05.182Z,34.92
2023-03-31T08:06:33.180Z,35.63
2023-03-31T08:09:00.417Z,36.65
2023-03-31T08:11:27.555Z,36.70
2023-03-31T08:13:54.539Z,36.40
2023-03-31T08:16:21.664Z,36.80
2023-03-31T08:18:48.687Z,34.10
2023-03-31T08:21:15.721Z,35.15
2023-03-31T08:23:42.817Z,34.65
2023-03-31T08:26:21.927Z,34.78
2023-03-31T08:28:49.397Z,35.10
2023-03-31T08:31:18.677Z,33.70
2023-03-31T08:33:46.775Z,33.30
2023-03-31T08:36:14.612Z,32.55
2023-03-31T08:38:46.249Z,32.40
2023-03-31T08:41:32.787Z,34.20
2023-03-31T08:44:02.893Z,34.22
2023-03-31T08:46:33.504Z,33.38
2023-03-31T08:49:01.343Z,32.72
2023-03-31T08:51:29.579Z,33.63
2023-03-31T08:54:25.741Z,32.22
2023-03-31T08:56:53.227Z,34.10
2023-03-31T08:59:33.161Z,33.95
2023-03-31T09:02:25.177Z,34.25
2023-03-31T09:05:16.453Z,33.97
2023-03-31T09:08:17.957Z,33.40
2023-03-31T09:11:04.747Z,31.90
2023-03-31T09:13:54.778Z,32.28
2023-03-31T09:16:27.441Z,32.58
2023-03-31T09:19:00.442Z,29.83
2023-03-31T09:21:40.906Z,31.33
2023-03-31T09:24:23.698Z,33.63
2023-03-31T09:26:58.585Z,33.40
2023-03-31T09:29:45.115Z,32.17
2023-03-31T09:32:15.346Z,34.05
2023-03-31T09:34:44.808Z,34.67
2023-03-31T09:37:12.583Z,35.67
2023-03-31T09:39:40.712Z,35.55
2023-03-31T09:42:10.627Z,37.83
2023-03-31T09:44:44.320Z,38.15
2023-03-31T09:47:18.870Z,37.47
2023-03-31T09:49:54.061Z,37.08
2023-03-31T09:52:33.359Z,34.75
2023-03-31T09:55:07.073Z,35.60
2023-03-31T10:00:16.572Z,32.53
2023-03-31T10:02:51.518Z,33.97
2023-03-31T10:05:51.906Z,32.80
2023-03-31T10:08:33.917Z,30.67
2023-03-31T10:11:03.973Z,32.50
2023-03-31T10:13:42.033Z,31.98
2023-03-31T10:16:14.602Z,31.05
2023-03-31T10:18:44.085Z,29.52
2023-03-31T10:21:24.106Z,31.30
2023-03-31T10:23:52.973Z,29.80
2023-03-31T10:26:40.020Z,34.70
2023-03-31T10:29:18.723Z,32.55
2023-03-31T10:31:45.879Z,32.75
2023-03-31T10:34:17.218Z,32.53
2023-03-31T10:36:48.315Z,32.95
2023-03-31T10:39:17.224Z,33.05
2023-03-31T10:41:49.611Z,32.65
2023-03-31T10:44:46.188Z,33.47
2023-03-31T10:47:13.999Z,30.45
2023-03-31T10:49:42.924Z,34.05
2023-03-31T10:52:25.842Z,30.02
2023-03-31T10:54:59.473Z,30.85
2023-03-31T10:57:56.795Z,29.83
2023-03-31T11:00:37.949Z,30.13
2023-03-31T11:03:31.116Z,29.55
2023-03-31T11:06:13.359Z,29.33
2023-03-31T11:09:22.225Z,31.05
2023-03-31T11:11:56.082Z,29.77
2023-03-31T11:14:40.321Z,30.00
2023-03-31T11:17:21.228Z,30.80
2023-03-31T11:19:55.178Z,31.90
2023-03-31T11:22:40.779Z,29.83
2023-03-31T11:25:30.626Z,30.45
2023-03-31T11:28:13.740Z,29.90
2023-03-31T11:30:58.079Z,29.00
2023-03-31T11:33:54.134Z,31.58
2023-03-31T11:36:41.627Z,27.60
2023-03-31T11:44:13.055Z,27.25
2023-03-31T11:47:02.464Z,21.58
2023-03-31T11:49:39.078Z,16.08
2023-03-31T12:30:06.338Z,23.88
2023-03-31T12:32:38.354Z,22.73
2023-03-31T12:35:16.741Z,21.88
2023-03-31T12:37:52.497Z,22.08
2023-03-31T12:40:37.144Z,21.77
2023-03-31T12:43:06.770Z,22.38
2023-03-31T12:45:46.236Z,19.92
2023-03-31T12:48:42.152Z,20.60
2023-03-31T12:51:27.769Z,21.80
2023-03-31T12:54:31.875Z,19.45
2023-03-31T12:57:01.760Z,15.20
2023-03-31T12:59:38.581Z,18.02
2023-03-31T13:02:21.661Z,16.25
2023-03-31T13:04:50.543Z,16.73
2023-03-31T13:07:28.469Z,16.77
2023-03-31T13:10:21.700Z,17.17
2023-03-31T13:13:16.226Z,17.83
2023-03-31T13:15:57.742Z,14.43
2023-03-31T13:18:25.501Z,14.60
2023-03-31T13:23:37.432Z,13.07
2023-03-31T13:26:04.789Z,14.23
2023-03-31T13:28:42.658Z,16.25
2023-03-31T13:31:13.869Z,14.57
2023-03-31T13:33:43.942Z,13.45
2023-03-31T13:36:32.760Z,13.98
2023-03-31T13:39:30.311Z,13.13
2023-03-31T13:42:35.380Z,13.63
2023-03-31T13:45:23.449Z,14.02
2023-03-31T13:47:58.762Z,14.23
2023-03-31T13:51:00.779Z,14.52
2023-03-31T13:53:41.985Z,17.80
2023-03-31T13:56:27.011Z,15.35
2023-03-31T13:59:06.174Z,16.35
2023-03-31T14:02:12.180Z,15.27
2023-03-31T14:05:03.887Z,14.65
2023-03-31T14:07:58.776Z,15.68
2023-03-31T14:10:35.089Z,15.45
2023-03-31T14:13:09.482Z,15.98
2023-03-31T14:15:52.183Z,15.43
2023-03-31T14:18:28.235Z,14.10
2023-03-31T14:21:04.060Z,15.30
2023-03-31T14:23:53.527Z,16.25
2023-03-31T14:26:46.800Z,16.00
2023-03-31T14:29:41.794Z,17.80
2023-03-31T14:32:36.980Z,19.67
2023-03-31T14:35:23.838Z,22.02
2023-03-31T14:37:51.219Z,19.73
2023-03-31T14:40:18.936Z,20.38
2023-03-31T14:42:49.780Z,22.83
2023-03-31T14:45:25.095Z,22.52
2023-03-31T14:48:02.769Z,22.52
2023-03-31T14:50:36.496Z,22.73
2023-03-31T14:53:04.856Z,23.98
2023-03-31T14:55:49.763Z,24.20
2023-03-31T14:58:35.011Z,24.23
2023-03-31T15:01:07.042Z,23.58
2023-03-31T15:03:37.585Z,23.30
2023-03-31T15:06:05.812Z,23.50
2023-03-31T15:08:34.821Z,23.88
2023-03-31T15:11:12.886Z,23.20
2023-03-31T15:13:56.703Z,22.27
2023-03-31T15:16:43.192Z,21.70
2023-03-31T15:19:22.819Z,19.42
2023-03-31T15:22:01.748Z,21.33
2023-03-31T15:24:29.610Z,21.40
2023-03-31T15:27:23.436Z,22.63
2023-03-31T15:29:56.210Z,20.30
2023-03-31T15:32:27.598Z,21.88
2023-03-31T15:34:57.265Z,21.08
2023-03-31T15:37:28.556Z,21.90
2023-03-31T15:39:58.283Z,21.42
2023-03-31T15:42:26.728Z,21.33
2023-03-31T15:45:17.817Z,21.00
2023-03-31T15:47:54.936Z,21.35
2023-03-31T15:50:23.851Z,21.02
2023-03-31T15:52:54.697Z,21.80
2023-03-31T15:55:39.406Z,23.33
2023-03-31T15:58:08.749Z,21.20
2023-03-31T16:00:47.699Z,22.27
2023-03-31T16:03:24.253Z,20.90
2023-03-31T16:05:56.520Z,19.98
2023-03-31T16:08:38.078Z,21.65
2023-03-31T16:11:13.765Z,22.70
2023-03-31T16:13:44.351Z,21.38
2023-03-31T16:16:15.030Z,22.88
2023-03-31T16:19:02.461Z,21.90
2023-03-31T16:21:37.261Z,22.45
2023-03-31T16:24:04.798Z,22.42
2023-03-31T16:26:32.547Z,22.15
2023-03-31T16:29:01.085Z,21.58
2023-03-31T16:31:40.418Z,21.77
2023-03-31T16:34:11.438Z,21.33
2023-03-31T16:36:38.627Z,23.17
2023-03-31T16:39:06.713Z,23.83
2023-03-31T16:41:34.809Z,21.85
2023-03-31T16:44:03.097Z,22.52
2023-03-31T16:46:30.151Z,21.67
2023-03-31T16:48:57.212Z,20.70
2023-03-31T16:51:24.736Z,22.15
2023-03-31T16:53:51.637Z,26.42
2023-03-31T16:56:19.103Z,24.27
2023-03-31T16:58:46.089Z,23.35
2023-03-31T17:01:13.116Z,29.35
2023-03-31T17:03:42.003Z,25.42
2023-03-31T17:06:13.331Z,26.88
2023-03-31T17:08:40.913Z,22.60
2023-03-31T17:11:12.279Z,21.40
2023-03-31T17:13:41.751Z,25.92
2023-03-31T17:16:20.274Z,25.35
2023-03-31T17:18:54.578Z,22.70
2023-03-31T17:21:21.972Z,19.10
2023-03-31T17:23:49.867Z,19.25
2023-03-31T17:26:18.499Z,19.77
2023-03-31T17:28:45.501Z,19.98
2023-03-31T17:31:16.542Z,21.63
2023-03-31T17:33:43.816Z,20.63
2023-03-31T17:36:11.297Z,20.30
2023-03-31T17:38:39.806Z,20.17
2023-03-31T17:41:09.481Z,19.85
2023-03-31T17:43:38.025Z,21.77
2023-03-31T17:46:09.916Z,21.75
2023-03-31T17:48:39.191Z,21.25
2023-03-31T17:51:13.786Z,21.98
2023-03-31T17:53:47.751Z,22.02
2023-03-31T17:56:15.658Z,29.08
2023-03-31T17:58:42.981Z,25.77
2023-03-31T18:01:11.799Z,27.58
2023-03-31T18:03:39.197Z,26.63
2023-03-31T18:06:08.508Z,23.17
2023-03-31T18:08:36.236Z,23.65
2023-03-31T18:11:05.185Z,23.80
2023-03-31T18:13:33.379Z,24.13
2023-03-31T18:16:00.560Z,22.63
2023-03-31T18:18:29.073Z,22.88
2023-03-31T18:20:56.726Z,23.80
2023-03-31T18:23:23.989Z,22.10
2023-03-31T18:25:51.777Z,22.35
2023-03-31T18:28:19.047Z,23.67
2023-03-31T18:30:47.269Z,22.27
2023-03-31T18:33:14.596Z,21.08
2023-03-31T18:35:42.167Z,23.23
2023-03-31T18:38:09.819Z,21.27
2023-03-31T18:40:36.958Z,21.83
2023-03-31T18:43:04.251Z,22.10
2023-03-31T18:45:31.303Z,22.90
2023-03-31T18:47:58.739Z,22.88
2023-03-31T18:50:26.019Z,21.13
2023-03-31T18:52:54.585Z,22.83
2023-03-31T18:55:22.383Z,21.98
2023-03-31T18:57:50.331Z,22.38
2023-03-31T19:00:17.797Z,22.90
2023-03-31T19:02:45.164Z,23.38
2023-03-31T19:05:12.300Z,24.35
2023-03-31T19:07:40.295Z,25.88
2023-03-31T19:10:08.192Z,24.70
2023-03-31T19:12:35.132Z,22.58
2023-03-31T19:15:03.647Z,21.25
2023-03-31T19:17:30.864Z,21.58
2023-03-31T19:19:57.907Z,22.02
2023-03-31T19:22:27.623Z,22.85
2023-03-31T19:24:54.654Z,22.60
2023-03-31T19:27:21.962Z,23.00
2023-03-31T19:29:49.088Z,22.35
2023-03-31T19:32:16.852Z,22.73
2023-03-31T19:34:45.759Z,22.45
2023-03-31T19:37:13.684Z,23.15
2023-03-31T19:39:40.615Z,22.17
2023-03-31T19:42:07.516Z,22.40
2023-03-31T19:44:34.449Z,20.83
2023-03-31T19:47:01.426Z,19.88
2023-03-31T19:49:28.340Z,20.63
2023-03-31T19:51:56.514Z,21.52
2023-03-31T19:54:23.563Z,19.77
2023-03-31T19:56:50.519Z,20.27
2023-03-31T19:59:17.597Z,19.45
2023-03-31T20:01:44.669Z,19.83
2023-03-31T20:04:12.320Z,19.65
2023-03-31T20:06:39.382Z,20.20
2023-03-31T20:09:06.470Z,20.42
2023-03-31T20:11:33.685Z,18.85
2023-03-31T20:14:01.767Z,19.30
2023-03-31T20:16:30.720Z,19.17
2023-03-31T20:19:01.333Z,19.77
2023-03-31T20:21:30.121Z,20.92
2023-03-31T20:23:58.908Z,20.65
2023-03-31T20:26:29.567Z,19.58
2023-03-31T20:28:58.170Z,20.48
2023-03-31T20:31:31.422Z,21.60
2023-03-31T20:33:58.730Z,19.00
2023-03-31T20:36:29.731Z,20.45
2023-03-31T20:38:57.210Z,20.15
2023-03-31T20:41:27.463Z,19.73
2023-03-31T20:43:55.563Z,20.02
2023-03-31T20:46:23.133Z,17.67
2023-03-31T20:48:53.165Z,18.23
2023-03-31T20:51:24.670Z,19.55
2023-03-31T20:53:53.124Z,18.77
2023-03-31T20:56:25.965Z,18.67
2023-03-31T20:58:58.900Z,18.63
2023-03-31T21:01:32.647Z,17.07
2023-03-31T21:04:05.032Z,20.15
2023-03-31T21:06:46.570Z,17.75
2023-03-31T21:09:14.920Z,18.13
2023-03-31T21:11:42.246Z,17.85
2023-03-31T21:14:16.497Z,18.65
2023-03-31T21:16:43.744Z,18.90
2023-03-31T21:19:11.369Z,18.30
2023-03-31T21:21:41.233Z,17.02
2023-03-31T21:24:11.329Z,17.85
2023-03-31T21:26:39.110Z,16.63
2023-03-31T21:29:06.257Z,17.63
2023-03-31T21:31:33.316Z,17.23
2023-03-31T21:34:02.591Z,16.25
2023-03-31T21:36:29.657Z,16.45
2023-03-31T21:38:57.485Z,17.30
2023-03-31T21:41:30.109Z,16.98
2023-03-31T21:44:00.548Z,15.88
2023-03-31T21:46:31.845Z,16.75
2023-03-31T21:48:59.099Z,16.65
2023-03-31T21:51:26.951Z,16.90
2023-03-31T21:53:55.690Z,16.58
2023-03-31T21:56:24.438Z,15.23
2023-03-31T21:58:51.718Z,15.73
2023-03-31T22:01:18.887Z,16.17
2023-03-31T22:03:46.380Z,15.60
2023-03-31T22:06:13.350Z,16.88
2023-03-31T22:08:40.748Z,16.48
2023-03-31T22:11:10.214Z,17.38
2023-03-31T22:13:37.908Z,16.63
2023-03-31T22:16:06.315Z,16.40
2023-03-31T22:18:33.642Z,17.75
2023-03-31T22:21:02.497Z,17.63
2023-03-31T22:23:29.765Z,17.90
2023-03-31T22:25:56.701Z,17.77
2023-03-31T22:28:23.652Z,17.38
2023-03-31T22:30:50.584Z,17.80
2023-03-31T22:33:17.498Z,18.70
2023-03-31T22:35:44.495Z,18.40
2023-03-31T22:38:13.955Z,17.98
2023-03-31T22:40:41.088Z,18.75
2023-03-31T22:43:08.570Z,19.35
2023-03-31T22:45:37.766Z,18.38
2023-03-31T22:48:05.587Z,18.08
2023-03-31T22:50:32.803Z,18.67
2023-03-31T22:52:59.752Z,18.90
2023-03-31T22:55:26.768Z,18.17
2023-03-31T22:57:53.677Z,18.92
2023-03-31T23:00:20.877Z,18.98
2023-03-31T23:02:47.829Z,19.70
2023-03-31T23:05:14.892Z,18.65
2023-03-31T23:07:42.421Z,19.05
2023-03-31T23:10:09.614Z,19.20
2023-03-31T23:12:36.920Z,20.10
2023-03-31T23:15:04.824Z,18.33
2023-03-31T23:17:31.972Z,19.65
2023-03-31T23:19:58.993Z,19.52
2023-03-31T23:22:26.495Z,18.92
2023-03-31T23:24:53.718Z,19.00
2023-03-31T23:27:20.906Z,19.77
2023-03-31T23:29:47.841Z,18.50
2023-03-31T23:32:14.998Z,18.05
2023-03-31T23:34:42.424Z,18.50
2023-03-31T23:37:11.350Z,18.48
2023-03-31T23:39:38.993Z,19.35
2023-03-31T23:42:07.333Z,17.83
2023-03-31T23:44:37.817Z,18.10
2023-03-31T23:47:05.603Z,18.08
2023-03-31T23:49:32.612Z,18.52
2023-03-31T23:51:59.574Z,16.80
2023-03-31T23:54:26.474Z,17.85
2023-03-31T23:56:53.518Z,18.55
2023-03-31T23:59:20.502Z,17.75
